sensor_id;sensor_type;location;lat;lon;timestamp;pressure;altitude;pressure_sealevel;temperature;humidity
38939;BME280;24211;49.980;19.776;2023-05-01T00:01:06;99867.31;;;8.53;81.71
38939;BME280;24211;49.980;19.776;2023-05-01T00:03:34;99861.13;;;8.46;82.33
38939;BME280;24211;49.980;19.776;2023-05-01T00:06:03;99860.28;;;8.39;83.02
38939;BME280;24211;49.980;19.776;2023-05-01T00:08:31;99866.81;;;8.36;83.01
38939;BME280;24211;49.980;19.776;2023-05-01T00:11:05;99862.31;;;8.30;83.24
38939;BME280;24211;49.980;19.776;2023-05-01T00:13:35;99867.19;;;8.27;83.32
38939;BME280;24211;49.980;19.776;2023-05-01T00:16:12;99866.72;;;8.23;82.92
38939;BME280;24211;49.980;19.776;2023-05-01T00:18:39;99867.31;;;8.19;82.91
38939;BME280;24211;49.980;19.776;2023-05-01T00:21:07;99869.09;;;8.12;84.29
38939;BME280;24211;49.980;19.776;2023-05-01T00:23:34;99867.88;;;8.08;84.28
38939;BME280;24211;49.980;19.776;2023-05-01T00:26:02;99872.31;;;8.01;85.72
38939;BME280;24211;49.980;19.776;2023-05-01T00:28:29;99869.00;;;7.99;85.01
38939;BME280;24211;49.980;19.776;2023-05-01T00:30:57;99866.53;;;7.90;85.52
38939;BME280;24211;49.980;19.776;2023-05-01T00:33:24;99863.63;;;7.85;86.00
38939;BME280;24211;49.980;19.776;2023-05-01T00:35:52;99861.59;;;7.87;85.09
38939;BME280;24211;49.980;19.776;2023-05-01T00:38:19;99867.28;;;7.84;85.39
38939;BME280;24211;49.980;19.776;2023-05-01T00:40:46;99859.06;;;7.79;85.03
38939;BME280;24211;49.980;19.776;2023-05-01T00:43:14;99866.41;;;7.77;85.29
38939;BME280;24211;49.980;19.776;2023-05-01T00:45:43;99858.19;;;7.72;85.35
38939;BME280;24211;49.980;19.776;2023-05-01T00:48:14;99862.25;;;7.68;85.66
38939;BME280;24211;49.980;19.776;2023-05-01T00:50:44;99865.88;;;7.61;86.83
38939;BME280;24211;49.980;19.776;2023-05-01T00:53:11;99866.47;;;7.56;87.06
38939;BME280;24211;49.980;19.776;2023-05-01T00:55:41;99878.88;;;7.49;87.27
38939;BME280;24211;49.980;19.776;2023-05-01T00:58:09;99882.53;;;7.48;87.68
38939;BME280;24211;49.980;19.776;2023-05-01T01:00:38;99874.56;;;7.48;86.67
38939;BME280;24211;49.980;19.776;2023-05-01T01:03:06;99880.00;;;7.40;88.88
38939;BME280;24211;49.980;19.776;2023-05-01T01:05:42;99886.09;;;7.34;88.15
38939;BME280;24211;49.980;19.776;2023-05-01T01:08:28;99879.91;;;7.27;89.22
38939;BME280;24211;49.980;19.776;2023-05-01T01:14:06;99880.00;;;7.19;91.39
38939;BME280;24211;49.980;19.776;2023-05-01T01:16:47;99876.06;;;7.15;90.93
38939;BME280;24211;49.980;19.776;2023-05-01T01:22:19;99866.94;;;7.03;93.32
38939;BME280;24211;49.980;19.776;2023-05-01T01:28:18;99869.75;;;6.95;94.92
38939;BME280;24211;49.980;19.776;2023-05-01T01:31:10;99879.09;;;6.91;96.55
38939;BME280;24211;49.980;19.776;2023-05-01T01:33:57;99875.78;;;6.89;96.11
38939;BME280;24211;49.980;19.776;2023-05-01T01:36:42;99874.16;;;6.88;94.30
38939;BME280;24211;49.980;19.776;2023-05-01T01:39:22;99877.81;;;6.87;93.89
38939;BME280;24211;49.980;19.776;2023-05-01T01:41:52;99872.25;;;6.82;94.88
38939;BME280;24211;49.980;19.776;2023-05-01T01:44:38;99872.97;;;6.76;95.59
38939;BME280;24211;49.980;19.776;2023-05-01T01:47:11;99865.41;;;6.73;96.12
38939;BME280;24211;49.980;19.776;2023-05-01T01:49:48;99865.13;;;6.68;96.56
38939;BME280;24211;49.980;19.776;2023-05-01T01:52:20;99864.50;;;6.66;95.88
38939;BME280;24211;49.980;19.776;2023-05-01T01:54:54;99861.59;;;6.61;96.04
38939;BME280;24211;49.980;19.776;2023-05-01T01:57:26;99865.59;;;6.56;97.03
38939;BME280;24211;49.980;19.776;2023-05-01T01:59:55;99864.34;;;6.52;97.03
38939;BME280;24211;49.980;19.776;2023-05-01T02:02:25;99871.31;;;6.53;96.96
38939;BME280;24211;49.980;19.776;2023-05-01T02:04:55;99863.06;;;6.48;96.20
38939;BME280;24211;49.980;19.776;2023-05-01T02:07:24;99859.75;;;6.46;97.02
38939;BME280;24211;49.980;19.776;2023-05-01T02:09:54;99861.13;;;6.42;97.46
38939;BME280;24211;49.980;19.776;2023-05-01T02:12:25;99856.03;;;6.41;96.63
38939;BME280;24211;49.980;19.776;2023-05-01T02:14:53;99857.56;;;6.35;97.87
38939;BME280;24211;49.980;19.776;2023-05-01T02:17:22;99862.41;;;6.32;98.91
38939;BME280;24211;49.980;19.776;2023-05-01T02:19:51;99859.97;;;6.30;98.32
38939;BME280;24211;49.980;19.776;2023-05-01T02:22:22;99856.66;;;6.28;97.05
38939;BME280;24211;49.980;19.776;2023-05-01T02:24:54;99847.25;;;6.26;97.80
38939;BME280;24211;49.980;19.776;2023-05-01T02:27:30;99850.44;;;6.21;98.94
38939;BME280;24211;49.980;19.776;2023-05-01T02:29:58;99843.84;;;6.17;100.00
38939;BME280;24211;49.980;19.776;2023-05-01T02:32:26;99849.53;;;6.14;99.82
38939;BME280;24211;49.980;19.776;2023-05-01T02:34:55;99850.53;;;6.13;100.00
38939;BME280;24211;49.980;19.776;2023-05-01T02:37:23;99845.44;;;6.12;100.00
38939;BME280;24211;49.980;19.776;2023-05-01T02:39:51;99843.28;;;6.07;100.00
38939;BME280;24211;49.980;19.776;2023-05-01T02:42:23;99850.97;;;6.02;100.00
38939;BME280;24211;49.980;19.776;2023-05-01T02:45:18;99848.03;;;5.97;100.00
38939;BME280;24211;49.980;19.776;2023-05-01T02:47:52;99838.19;;;5.91;100.00
38939;BME280;24211;49.980;19.776;2023-05-01T02:50:22;99841.81;;;5.90;100.00
38939;BME280;24211;49.980;19.776;2023-05-01T02:52:50;99841.53;;;5.85;100.00
38939;BME280;24211;49.980;19.776;2023-05-01T02:55:31;99836.31;;;5.77;100.00
38939;BME280;24211;49.980;19.776;2023-05-01T02:57:59;99826.06;;;5.74;100.00
38939;BME280;24211;49.980;19.776;2023-05-01T03:00:27;99825.97;;;5.67;100.00
38939;BME280;24211;49.980;19.776;2023-05-01T03:02:55;99829.13;;;5.63;100.00
38939;BME280;24211;49.980;19.776;2023-05-01T03:05:24;99833.16;;;5.59;100.00
38939;BME280;24211;49.980;19.776;2023-05-01T03:07:51;99828.59;;;5.53;100.00
38939;BME280;24211;49.980;19.776;2023-05-01T03:10:19;99825.66;;;5.48;100.00
38939;BME280;24211;49.980;19.776;2023-05-01T03:12:47;99828.38;;;5.40;100.00
38939;BME280;24211;49.980;19.776;2023-05-01T03:15:14;99825.09;;;5.38;100.00
38939;BME280;24211;49.980;19.776;2023-05-01T03:17:42;99827.09;;;5.36;100.00
38939;BME280;24211;49.980;19.776;2023-05-01T03:20:10;99820.13;;;5.35;100.00
38939;BME280;24211;49.980;19.776;2023-05-01T03:22:37;99818.47;;;5.34;100.00
38939;BME280;24211;49.980;19.776;2023-05-01T03:25:06;99822.78;;;5.35;100.00
38939;BME280;24211;49.980;19.776;2023-05-01T03:27:35;99812.53;;;5.32;100.00
38939;BME280;24211;49.980;19.776;2023-05-01T03:30:03;99819.84;;;5.29;100.00
38939;BME280;24211;49.980;19.776;2023-05-01T03:32:36;99816.38;;;5.29;100.00
38939;BME280;24211;49.980;19.776;2023-05-01T03:35:07;99818.19;;;5.28;100.00
38939;BME280;24211;49.980;19.776;2023-05-01T03:37:35;99819.66;;;5.31;100.00
38939;BME280;24211;49.980;19.776;2023-05-01T03:40:03;99819.00;;;5.29;100.00
38939;BME280;24211;49.980;19.776;2023-05-01T03:42:49;99813.91;;;5.27;100.00
38939;BME280;24211;49.980;19.776;2023-05-01T03:45:20;99808.59;;;5.27;100.00
38939;BME280;24211;49.980;19.776;2023-05-01T03:47:48;99810.91;;;5.31;100.00
38939;BME280;24211;49.980;19.776;2023-05-01T03:50:16;99812.25;;;5.26;100.00
38939;BME280;24211;49.980;19.776;2023-05-01T03:52:46;99809.44;;;5.28;100.00
38939;BME280;24211;49.980;19.776;2023-05-01T03:55:13;99811.53;;;5.33;100.00
38939;BME280;24211;49.980;19.776;2023-05-01T03:57:41;99813.16;;;5.34;100.00
38939;BME280;24211;49.980;19.776;2023-05-01T04:00:11;99812.00;;;5.36;100.00
38939;BME280;24211;49.980;19.776;2023-05-01T04:02:46;99817.78;;;5.40;100.00
38939;BME280;24211;49.980;19.776;2023-05-01T04:05:18;99818.06;;;5.45;100.00
38939;BME280;24211;49.980;19.776;2023-05-01T04:07:52;99812.69;;;5.53;100.00
38939;BME280;24211;49.980;19.776;2023-05-01T04:10:20;99815.78;;;5.56;100.00
38939;BME280;24211;49.980;19.776;2023-05-01T04:12:55;99818.53;;;5.63;100.00
38939;BME280;24211;49.980;19.776;2023-05-01T04:15:23;99815.81;;;5.71;100.00
38939;BME280;24211;49.980;19.776;2023-05-01T04:17:51;99813.91;;;5.79;100.00
38939;BME280;24211;49.980;19.776;2023-05-01T04:20:19;99810.38;;;5.87;100.00
38939;BME280;24211;49.980;19.776;2023-05-01T04:22:46;99815.56;;;5.95;100.00
38939;BME280;24211;49.980;19.776;2023-05-01T04:25:14;99817.16;;;6.04;100.00
38939;BME280;24211;49.980;19.776;2023-05-01T04:27:43;99819.31;;;6.15;100.00
38939;BME280;24211;49.980;19.776;2023-05-01T04:30:12;99816.22;;;6.26;100.00
38939;BME280;24211;49.980;19.776;2023-05-01T04:32:39;99818.38;;;6.37;100.00
38939;BME280;24211;49.980;19.776;2023-05-01T04:35:07;99810.75;;;6.49;100.00
38939;BME280;24211;49.980;19.776;2023-05-01T04:37:36;99813.00;;;6.67;100.00
38939;BME280;24211;49.980;19.776;2023-05-01T04:40:05;99812.81;;;6.83;100.00
38939;BME280;24211;49.980;19.776;2023-05-01T04:42:33;99808.63;;;6.95;100.00
38939;BME280;24211;49.980;19.776;2023-05-01T04:45:02;99811.41;;;7.08;100.00
38939;BME280;24211;49.980;19.776;2023-05-01T04:47:34;99798.94;;;7.30;100.00
38939;BME280;24211;49.980;19.776;2023-05-01T04:50:02;99802.75;;;7.48;100.00
38939;BME280;24211;49.980;19.776;2023-05-01T04:52:30;99802.06;;;7.67;100.00
38939;BME280;24211;49.980;19.776;2023-05-01T04:55:01;99806.09;;;7.84;100.00
38939;BME280;24211;49.980;19.776;2023-05-01T04:57:32;99805.59;;;8.02;100.00
38939;BME280;24211;49.980;19.776;2023-05-01T05:00:05;99802.41;;;8.20;100.00
38939;BME280;24211;49.980;19.776;2023-05-01T05:02:39;99801.09;;;8.37;100.00
38939;BME280;24211;49.980;19.776;2023-05-01T05:05:07;99796.44;;;8.52;100.00
38939;BME280;24211;49.980;19.776;2023-05-01T05:07:35;99793.78;;;8.65;100.00
38939;BME280;24211;49.980;19.776;2023-05-01T05:10:21;99798.16;;;8.79;100.00
38939;BME280;24211;49.980;19.776;2023-05-01T05:13:02;99791.00;;;8.93;100.00
38939;BME280;24211;49.980;19.776;2023-05-01T05:15:29;99788.75;;;9.09;100.00
38939;BME280;24211;49.980;19.776;2023-05-01T05:17:56;99790.84;;;9.27;98.46
38939;BME280;24211;49.980;19.776;2023-05-01T05:20:25;99790.00;;;9.46;96.79
38939;BME280;24211;49.980;19.776;2023-05-01T05:22:52;99787.53;;;9.71;100.00
38939;BME280;24211;49.980;19.776;2023-05-01T05:25:23;99790.97;;;9.98;100.00
38939;BME280;24211;49.980;19.776;2023-05-01T05:27:51;99787.44;;;10.23;100.00
38939;BME280;24211;49.980;19.776;2023-05-01T05:30:19;99784.03;;;10.47;100.00
38939;BME280;24211;49.980;19.776;2023-05-01T05:32:46;99786.44;;;10.69;100.00
38939;BME280;24211;49.980;19.776;2023-05-01T05:35:14;99775.22;;;10.85;99.56
38939;BME280;24211;49.980;19.776;2023-05-01T05:37:42;99776.94;;;11.04;100.00
38939;BME280;24211;49.980;19.776;2023-05-01T05:40:12;99771.13;;;11.38;100.00
38939;BME280;24211;49.980;19.776;2023-05-01T05:42:51;99777.69;;;11.67;100.00
38939;BME280;24211;49.980;19.776;2023-05-01T05:45:19;99768.25;;;11.82;95.34
38939;BME280;24211;49.980;19.776;2023-05-01T05:47:47;99776.31;;;12.01;92.36
38939;BME280;24211;49.980;19.776;2023-05-01T05:50:15;99772.75;;;12.25;93.68
38939;BME280;24211;49.980;19.776;2023-05-01T05:52:44;99773.78;;;12.42;90.07
38939;BME280;24211;49.980;19.776;2023-05-01T05:55:12;99769.34;;;12.66;90.77
38939;BME280;24211;49.980;19.776;2023-05-01T05:57:45;99769.91;;;12.97;87.80
38939;BME280;24211;49.980;19.776;2023-05-01T06:00:13;99764.78;;;13.26;86.12
38939;BME280;24211;49.980;19.776;2023-05-01T06:02:46;99766.31;;;13.56;81.99
38939;BME280;24211;49.980;19.776;2023-05-01T06:05:14;99776.34;;;13.84;82.21
38939;BME280;24211;49.980;19.776;2023-05-01T06:07:41;99775.50;;;14.18;79.08
38939;BME280;24211;49.980;19.776;2023-05-01T06:10:10;99771.91;;;14.64;75.77
38939;BME280;24211;49.980;19.776;2023-05-01T06:12:38;99772.34;;;15.01;71.76
38939;BME280;24211;49.980;19.776;2023-05-01T06:15:10;99765.75;;;15.25;70.08
38939;BME280;24211;49.980;19.776;2023-05-01T06:17:43;99766.44;;;15.49;69.24
38939;BME280;24211;49.980;19.776;2023-05-01T06:20:11;99761.38;;;15.52;70.79
38939;BME280;24211;49.980;19.776;2023-05-01T06:22:40;99758.25;;;15.60;69.20
38939;BME280;24211;49.980;19.776;2023-05-01T06:25:14;99758.75;;;15.74;68.69
38939;BME280;24211;49.980;19.776;2023-05-01T06:27:42;99756.44;;;15.83;68.19
38939;BME280;24211;49.980;19.776;2023-05-01T06:30:10;99751.50;;;15.96;68.35
38939;BME280;24211;49.980;19.776;2023-05-01T06:32:40;99756.16;;;16.44;66.50
38939;BME280;24211;49.980;19.776;2023-05-01T06:35:11;99752.31;;;16.83;65.45
38939;BME280;24211;49.980;19.776;2023-05-01T06:37:38;99751.09;;;16.96;64.88
38939;BME280;24211;49.980;19.776;2023-05-01T06:40:08;99746.84;;;17.32;62.72
38939;BME280;24211;49.980;19.776;2023-05-01T06:42:37;99751.00;;;17.49;61.78
38939;BME280;24211;49.980;19.776;2023-05-01T06:45:30;99746.00;;;17.63;61.25
38939;BME280;24211;49.980;19.776;2023-05-01T06:47:58;99752.63;;;17.50;61.21
38939;BME280;24211;49.980;19.776;2023-05-01T06:50:25;99746.88;;;17.37;62.32
38939;BME280;24211;49.980;19.776;2023-05-01T06:52:53;99736.84;;;17.64;61.22
38939;BME280;24211;49.980;19.776;2023-05-01T06:55:20;99732.59;;;17.78;60.90
38939;BME280;24211;49.980;19.776;2023-05-01T06:57:48;99732.78;;;18.18;59.03
38939;BME280;24211;49.980;19.776;2023-05-01T07:00:16;99737.47;;;18.38;58.11
38939;BME280;24211;49.980;19.776;2023-05-01T07:02:44;99739.13;;;18.39;57.10
38939;BME280;24211;49.980;19.776;2023-05-01T07:05:12;99725.84;;;18.38;57.46
38939;BME280;24211;49.980;19.776;2023-05-01T07:07:40;99735.97;;;18.57;57.29
38939;BME280;24211;49.980;19.776;2023-05-01T07:10:16;99711.84;;;19.97;47.37
38939;BME280;24211;49.980;19.776;2023-05-01T07:12:43;99720.72;;;20.76;43.71
38939;BME280;24211;49.980;19.776;2023-05-01T07:15:11;99717.91;;;20.92;40.30
38939;BME280;24211;49.980;19.776;2023-05-01T07:17:40;99716.13;;;21.16;39.05
38939;BME280;24211;49.980;19.776;2023-05-01T07:20:08;99718.06;;;21.15;38.56
38939;BME280;24211;49.980;19.776;2023-05-01T07:22:36;99708.00;;;21.11;35.71
38939;BME280;24211;49.980;19.776;2023-05-01T07:25:04;99699.88;;;21.11;34.60
38939;BME280;24211;49.980;19.776;2023-05-01T07:27:31;99707.25;;;21.05;35.87
38939;BME280;24211;49.980;19.776;2023-05-01T07:30:00;99710.16;;;21.14;36.79
38939;BME280;24211;49.980;19.776;2023-05-01T07:32:27;99716.69;;;21.18;38.88
38939;BME280;24211;49.980;19.776;2023-05-01T07:34:55;99704.78;;;21.04;36.13
38939;BME280;24211;49.980;19.776;2023-05-01T07:37:22;99709.59;;;21.17;35.17
38939;BME280;24211;49.980;19.776;2023-05-01T07:39:50;99709.06;;;21.20;35.06
38939;BME280;24211;49.980;19.776;2023-05-01T07:42:17;99712.69;;;21.39;32.71
38939;BME280;24211;49.980;19.776;2023-05-01T07:44:45;99716.59;;;21.57;36.57
38939;BME280;24211;49.980;19.776;2023-05-01T07:47:12;99709.78;;;21.59;33.56
38939;BME280;24211;49.980;19.776;2023-05-01T07:49:40;99709.13;;;21.67;32.83
38939;BME280;24211;49.980;19.776;2023-05-01T07:52:07;99708.63;;;21.65;31.73
38939;BME280;24211;49.980;19.776;2023-05-01T07:54:34;99714.56;;;21.67;32.89
38939;BME280;24211;49.980;19.776;2023-05-01T07:57:07;99705.31;;;21.68;35.49
38939;BME280;24211;49.980;19.776;2023-05-01T07:59:35;99704.28;;;21.64;33.07
38939;BME280;24211;49.980;19.776;2023-05-01T08:02:03;99699.47;;;22.08;33.68
38939;BME280;24211;49.980;19.776;2023-05-01T08:04:30;99705.72;;;22.33;33.27
38939;BME280;24211;49.980;19.776;2023-05-01T08:06:57;99699.56;;;22.22;31.33
38939;BME280;24211;49.980;19.776;2023-05-01T08:09:25;99709.97;;;22.39;32.26
38939;BME280;24211;49.980;19.776;2023-05-01T08:11:52;99695.38;;;22.30;31.88
38939;BME280;24211;49.980;19.776;2023-05-01T08:14:19;99701.22;;;22.42;30.98
38939;BME280;24211;49.980;19.776;2023-05-01T08:16:46;99706.34;;;22.67;31.19
38939;BME280;24211;49.980;19.776;2023-05-01T08:19:20;99705.53;;;23.04;32.00
38939;BME280;24211;49.980;19.776;2023-05-01T08:21:48;99703.94;;;22.84;32.31
38939;BME280;24211;49.980;19.776;2023-05-01T08:24:15;99707.22;;;22.81;31.90
38939;BME280;24211;49.980;19.776;2023-05-01T08:26:42;99704.56;;;23.13;31.16
38939;BME280;24211;49.980;19.776;2023-05-01T08:29:10;99696.50;;;23.40;32.90
38939;BME280;24211;49.980;19.776;2023-05-01T08:31:37;99691.19;;;23.63;31.55
38939;BME280;24211;49.980;19.776;2023-05-01T08:34:05;99686.53;;;23.77;30.62
38939;BME280;24211;49.980;19.776;2023-05-01T08:36:33;99681.91;;;23.77;30.61
38939;BME280;24211;49.980;19.776;2023-05-01T08:39:01;99680.06;;;23.73;31.21
38939;BME280;24211;49.980;19.776;2023-05-01T08:41:29;99682.81;;;23.86;31.78
38939;BME280;24211;49.980;19.776;2023-05-01T08:43:59;99675.25;;;24.24;31.88
38939;BME280;24211;49.980;19.776;2023-05-01T08:46:44;99679.88;;;24.24;32.49
38939;BME280;24211;49.980;19.776;2023-05-01T08:49:17;99680.28;;;24.31;30.46
38939;BME280;24211;49.980;19.776;2023-05-01T08:51:49;99672.41;;;24.29;30.71
38939;BME280;24211;49.980;19.776;2023-05-01T08:54:20;99676.91;;;23.52;29.62
38939;BME280;24211;49.980;19.776;2023-05-01T08:56:50;99671.72;;;24.10;30.74
38939;BME280;24211;49.980;19.776;2023-05-01T08:59:22;99665.53;;;24.18;29.70
38939;BME280;24211;49.980;19.776;2023-05-01T09:01:51;99665.72;;;24.08;28.54
38939;BME280;24211;49.980;19.776;2023-05-01T09:04:19;99662.63;;;24.15;28.59
38939;BME280;24211;49.980;19.776;2023-05-01T09:06:47;99658.44;;;24.03;29.55
38939;BME280;24211;49.980;19.776;2023-05-01T09:09:15;99659.06;;;24.14;30.22
38939;BME280;24211;49.980;19.776;2023-05-01T09:11:44;99650.88;;;24.63;29.84
38939;BME280;24211;49.980;19.776;2023-05-01T09:14:11;99646.56;;;24.85;28.92
38939;BME280;24211;49.980;19.776;2023-05-01T09:16:38;99645.66;;;24.76;28.38
38939;BME280;24211;49.980;19.776;2023-05-01T09:19:06;99644.78;;;24.66;29.51
38939;BME280;24211;49.980;19.776;2023-05-01T09:21:33;99640.31;;;24.70;30.06
38939;BME280;24211;49.980;19.776;2023-05-01T09:24:00;99639.97;;;24.86;30.12
38939;BME280;24211;49.980;19.776;2023-05-01T09:26:28;99629.53;;;24.88;29.74
38939;BME280;24211;49.980;19.776;2023-05-01T09:28:56;99641.88;;;25.29;28.93
38939;BME280;24211;49.980;19.776;2023-05-01T09:31:25;99631.25;;;25.28;28.41
38939;BME280;24211;49.980;19.776;2023-05-01T09:34:02;99630.13;;;25.29;29.67
38939;BME280;24211;49.980;19.776;2023-05-01T09:36:32;99631.63;;;24.68;29.72
38939;BME280;24211;49.980;19.776;2023-05-01T09:39:00;99628.13;;;25.21;28.92
38939;BME280;24211;49.980;19.776;2023-05-01T09:41:29;99617.94;;;25.35;28.85
38939;BME280;24211;49.980;19.776;2023-05-01T09:43:59;99615.44;;;25.47;28.77
38939;BME280;24211;49.980;19.776;2023-05-01T09:46:27;99617.91;;;25.57;28.93
38939;BME280;24211;49.980;19.776;2023-05-01T09:48:59;99615.78;;;26.02;28.42
38939;BME280;24211;49.980;19.776;2023-05-01T09:51:32;99618.88;;;25.61;28.67
38939;BME280;24211;49.980;19.776;2023-05-01T09:54:04;99616.34;;;25.73;28.69
38939;BME280;24211;49.980;19.776;2023-05-01T09:56:47;99608.66;;;25.92;28.31
38939;BME280;24211;49.980;19.776;2023-05-01T09:59:18;99610.66;;;26.09;28.55
38939;BME280;24211;49.980;19.776;2023-05-01T10:01:46;99599.00;;;25.95;28.77
38939;BME280;24211;49.980;19.776;2023-05-01T10:04:16;99597.03;;;25.39;30.25
38939;BME280;24211;49.980;19.776;2023-05-01T10:06:44;99589.31;;;25.80;28.94
38939;BME280;24211;49.980;19.776;2023-05-01T10:09:27;99590.22;;;26.32;29.13
38939;BME280;24211;49.980;19.776;2023-05-01T10:11:55;99588.94;;;26.47;28.96
38939;BME280;24211;49.980;19.776;2023-05-01T10:14:24;99586.69;;;25.67;27.71
38939;BME280;24211;49.980;19.776;2023-05-01T10:16:53;99586.84;;;26.18;28.14
38939;BME280;24211;49.980;19.776;2023-05-01T10:19:20;99580.06;;;26.16;27.86
38939;BME280;24211;49.980;19.776;2023-05-01T10:21:48;99578.97;;;26.51;28.33
38939;BME280;24211;49.980;19.776;2023-05-01T10:24:16;99572.19;;;26.57;27.26
38939;BME280;24211;49.980;19.776;2023-05-01T10:26:48;99568.66;;;26.31;28.97
38939;BME280;24211;49.980;19.776;2023-05-01T10:29:22;99565.41;;;26.12;28.44
38939;BME280;24211;49.980;19.776;2023-05-01T10:31:50;99558.94;;;24.90;29.45
38939;BME280;24211;49.980;19.776;2023-05-01T10:34:21;99559.91;;;23.78;28.44
38939;BME280;24211;49.980;19.776;2023-05-01T10:36:59;99544.91;;;24.83;28.67
38939;BME280;24211;49.980;19.776;2023-05-01T10:39:35;99538.06;;;24.27;30.40
38939;BME280;24211;49.980;19.776;2023-05-01T10:42:10;99546.28;;;24.49;28.69
38939;BME280;24211;49.980;19.776;2023-05-01T10:44:41;99542.56;;;25.29;28.99
38939;BME280;24211;49.980;19.776;2023-05-01T10:50:08;99547.59;;;25.83;28.07
38939;BME280;24211;49.980;19.776;2023-05-01T10:55:42;99542.34;;;26.13;28.28
38939;BME280;24211;49.980;19.776;2023-05-01T10:58:13;99548.31;;;26.15;28.91
38939;BME280;24211;49.980;19.776;2023-05-01T11:00:40;99539.31;;;26.23;28.32
38939;BME280;24211;49.980;19.776;2023-05-01T11:14:07;99529.75;;;25.94;28.59
38939;BME280;24211;49.980;19.776;2023-05-01T11:19:44;99522.75;;;25.23;30.20
38939;BME280;24211;49.980;19.776;2023-05-01T11:22:14;99509.84;;;25.46;29.03
38939;BME280;24211;49.980;19.776;2023-05-01T11:24:41;99506.91;;;25.43;28.11
38939;BME280;24211;49.980;19.776;2023-05-01T11:27:12;99500.78;;;25.37;29.13
38939;BME280;24211;49.980;19.776;2023-05-01T11:29:43;99509.81;;;23.96;29.63
38939;BME280;24211;49.980;19.776;2023-05-01T11:32:21;99516.53;;;23.76;30.73
38939;BME280;24211;49.980;19.776;2023-05-01T11:34:50;99502.63;;;25.19;29.31
38939;BME280;24211;49.980;19.776;2023-05-01T11:37:19;99491.09;;;25.31;30.25
38939;BME280;24211;49.980;19.776;2023-05-01T11:39:50;99498.78;;;25.60;29.77
38939;BME280;24211;49.980;19.776;2023-05-01T11:42:20;99495.03;;;25.47;30.38
38939;BME280;24211;49.980;19.776;2023-05-01T11:45:08;99488.88;;;24.94;30.00
38939;BME280;24211;49.980;19.776;2023-05-01T11:47:38;99486.88;;;24.86;30.85
38939;BME280;24211;49.980;19.776;2023-05-01T11:50:07;99496.63;;;23.76;29.58
38939;BME280;24211;49.980;19.776;2023-05-01T11:52:46;99484.63;;;24.88;30.42
38939;BME280;24211;49.980;19.776;2023-05-01T11:55:33;99487.59;;;24.47;29.71
38939;BME280;24211;49.980;19.776;2023-05-01T11:58:01;99482.88;;;25.22;30.09
38939;BME280;24211;49.980;19.776;2023-05-01T12:00:32;99485.59;;;25.31;28.71
38939;BME280;24211;49.980;19.776;2023-05-01T12:03:10;99480.75;;;25.11;29.47
38939;BME280;24211;49.980;19.776;2023-05-01T12:05:42;99470.84;;;25.01;29.19
38939;BME280;24211;49.980;19.776;2023-05-01T12:08:19;99472.41;;;25.16;29.98
38939;BME280;24211;49.980;19.776;2023-05-01T12:10:53;99458.59;;;25.29;29.27
38939;BME280;24211;49.980;19.776;2023-05-01T12:13:24;99464.44;;;24.22;29.19
38939;BME280;24211;49.980;19.776;2023-05-01T12:15:55;99457.03;;;24.45;30.97
38939;BME280;24211;49.980;19.776;2023-05-01T12:18:22;99456.88;;;24.41;30.43
38939;BME280;24211;49.980;19.776;2023-05-01T12:20:53;99452.13;;;24.33;29.11
38939;BME280;24211;49.980;19.776;2023-05-01T12:23:36;99445.38;;;23.73;29.28
38939;BME280;24211;49.980;19.776;2023-05-01T12:26:21;99450.31;;;23.49;29.41
38939;BME280;24211;49.980;19.776;2023-05-01T12:29:04;99440.56;;;24.58;30.48
38939;BME280;24211;49.980;19.776;2023-05-01T12:31:32;99436.53;;;24.56;30.52
38939;BME280;24211;49.980;19.776;2023-05-01T12:34:01;99433.56;;;24.75;29.89
38939;BME280;24211;49.980;19.776;2023-05-01T12:36:31;99439.09;;;24.08;29.55
38939;BME280;24211;49.980;19.776;2023-05-01T12:39:10;99427.44;;;24.16;29.79
38939;BME280;24211;49.980;19.776;2023-05-01T12:41:46;99417.13;;;24.13;31.66
38939;BME280;24211;49.980;19.776;2023-05-01T12:44:27;99416.06;;;24.76;30.23
38939;BME280;24211;49.980;19.776;2023-05-01T12:47:01;99410.38;;;24.63;30.56
38939;BME280;24211;49.980;19.776;2023-05-01T12:49:30;99409.22;;;24.87;31.14
38939;BME280;24211;49.980;19.776;2023-05-01T12:52:00;99404.25;;;24.97;30.99
38939;BME280;24211;49.980;19.776;2023-05-01T12:54:38;99406.97;;;24.27;30.94
38939;BME280;24211;49.980;19.776;2023-05-01T12:57:12;99402.94;;;24.55;30.15
38939;BME280;24211;49.980;19.776;2023-05-01T12:59:45;99395.13;;;24.40;30.27
38939;BME280;24211;49.980;19.776;2023-05-01T13:02:16;99394.13;;;24.98;30.56
38939;BME280;24211;49.980;19.776;2023-05-01T13:04:45;99387.94;;;25.31;30.60
38939;BME280;24211;49.980;19.776;2023-05-01T13:07:17;99386.50;;;25.34;30.80
38939;BME280;24211;49.980;19.776;2023-05-01T13:09:57;99388.16;;;24.87;31.96
38939;BME280;24211;49.980;19.776;2023-05-01T13:12:27;99386.63;;;24.11;31.58
38939;BME280;24211;49.980;19.776;2023-05-01T13:14:56;99378.50;;;23.62;31.52
38939;BME280;24211;49.980;19.776;2023-05-01T13:17:31;99380.28;;;23.80;30.69
38939;BME280;24211;49.980;19.776;2023-05-01T13:20:04;99383.63;;;23.27;31.14
38939;BME280;24211;49.980;19.776;2023-05-01T13:22:38;99376.28;;;23.14;31.94
38939;BME280;24211;49.980;19.776;2023-05-01T13:25:18;99363.94;;;23.88;30.90
38939;BME280;24211;49.980;19.776;2023-05-01T13:27:51;99365.88;;;24.32;30.69
38939;BME280;24211;49.980;19.776;2023-05-01T13:30:30;99366.75;;;23.75;30.55
38939;BME280;24211;49.980;19.776;2023-05-01T13:32:57;99369.03;;;24.03;31.39
38939;BME280;24211;49.980;19.776;2023-05-01T13:35:26;99364.16;;;24.14;31.39
38939;BME280;24211;49.980;19.776;2023-05-01T13:37:54;99362.94;;;24.59;31.22
38939;BME280;24211;49.980;19.776;2023-05-01T13:40:25;99362.03;;;23.89;31.79